sensor_id;sensor_type;location;lat;lon;timestamp;pressure;altitude;pressure_sealevel;temperature;humidity
23616;BME280;11985;49.404;7.734;2022-08-19T00:00:38;97028.81;;;17.73;80.27
23616;BME280;11985;49.404;7.734;2022-08-19T00:02:40;97030.88;;;17.71;80.46
23616;BME280;11985;49.404;7.734;2022-08-19T00:04:42;97034.59;;;17.70;80.66
23616;BME280;11985;49.404;7.734;2022-08-19T00:06:48;97028.75;;;17.68;80.75
23616;BME280;11985;49.404;7.734;2022-08-19T00:08:49;97028.22;;;17.66;80.94
23616;BME280;11985;49.404;7.734;2022-08-19T00:10:51;97024.97;;;17.64;81.02
23616;BME280;11985;49.404;7.734;2022-08-19T00:12:53;97011.66;;;17.64;81.08
23616;BME280;11985;49.404;7.734;2022-08-19T00:14:54;97014.31;;;17.64;81.22
23616;BME280;11985;49.404;7.734;2022-08-19T00:16:56;97010.59;;;17.65;81.38
23616;BME280;11985;49.404;7.734;2022-08-19T00:18:58;97004.47;;;17.64;81.42
23616;BME280;11985;49.404;7.734;2022-08-19T00:21:00;97004.75;;;17.63;81.51
23616;BME280;11985;49.404;7.734;2022-08-19T00:23:03;97002.06;;;17.63;81.74
23616;BME280;11985;49.404;7.734;2022-08-19T00:25:06;97001.53;;;17.61;81.76
23616;BME280;11985;49.404;7.734;2022-08-19T00:27:08;97008.47;;;17.62;81.71
23616;BME280;11985;49.404;7.734;2022-08-19T00:29:11;97012.44;;;17.59;81.68
23616;BME280;11985;49.404;7.734;2022-08-19T00:31:13;97018.81;;;17.58;81.80
23616;BME280;11985;49.404;7.734;2022-08-19T00:33:16;97025.47;;;17.56;81.87
23616;BME280;11985;49.404;7.734;2022-08-19T00:35:18;97027.84;;;17.52;81.74
23616;BME280;11985;49.404;7.734;2022-08-19T00:37:19;97037.16;;;17.50;81.77
23616;BME280;11985;49.404;7.734;2022-08-19T00:39:24;97034.97;;;17.47;81.63
23616;BME280;11985;49.404;7.734;2022-08-19T00:41:26;97032.84;;;17.44;81.62
23616;BME280;11985;49.404;7.734;2022-08-19T00:43:28;97030.19;;;17.44;81.61
23616;BME280;11985;49.404;7.734;2022-08-19T00:45:29;97027.25;;;17.45;81.85
23616;BME280;11985;49.404;7.734;2022-08-19T00:47:32;97019.53;;;17.44;81.91
23616;BME280;11985;49.404;7.734;2022-08-19T00:49:37;97011.53;;;17.44;81.92
23616;BME280;11985;49.404;7.734;2022-08-19T00:51:42;97001.94;;;17.42;82.13
23616;BME280;11985;49.404;7.734;2022-08-19T00:53:45;97008.34;;;17.47;82.35
23616;BME280;11985;49.404;7.734;2022-08-19T00:55:48;97001.16;;;17.47;82.42
23616;BME280;11985;49.404;7.734;2022-08-19T00:57:54;97009.94;;;17.48;82.43
23616;BME280;11985;49.404;7.734;2022-08-19T00:59:58;97008.34;;;17.47;82.55
23616;BME280;11985;49.404;7.734;2022-08-19T01:02:00;97009.94;;;17.48;82.72
23616;BME280;11985;49.404;7.734;2022-08-19T01:04:02;97003.56;;;17.49;82.79
23616;BME280;11985;49.404;7.734;2022-08-19T01:06:03;97007.84;;;17.50;82.83
23616;BME280;11985;49.404;7.734;2022-08-19T01:08:07;97007.84;;;17.50;83.04
23616;BME280;11985;49.404;7.734;2022-08-19T01:10:13;97002.53;;;17.50;82.90
23616;BME280;11985;49.404;7.734;2022-08-19T01:12:17;96999.56;;;17.46;82.88
23616;BME280;11985;49.404;7.734;2022-08-19T01:14:19;97003.56;;;17.44;82.80
23616;BME280;11985;49.404;7.734;2022-08-19T01:16:22;96987.28;;;17.40;82.86
23616;BME280;11985;49.404;7.734;2022-08-19T01:18:26;96993.09;;;17.37;83.00
23616;BME280;11985;49.404;7.734;2022-08-19T01:20:28;96978.47;;;17.34;83.04
23616;BME280;11985;49.404;7.734;2022-08-19T01:22:34;96985.91;;;17.37;83.17
23616;BME280;11985;49.404;7.734;2022-08-19T01:24:39;96990.22;;;17.38;83.16
23616;BME280;11985;49.404;7.734;2022-08-19T01:26:41;96986.47;;;17.39;83.27
23616;BME280;11985;49.404;7.734;2022-08-19T01:28:46;96998.72;;;17.40;83.33
23616;BME280;11985;49.404;7.734;2022-08-19T01:30:48;97006.75;;;17.46;83.23
23616;BME280;11985;49.404;7.734;2022-08-19T01:32:51;97005.44;;;17.48;83.21
23616;BME280;11985;49.404;7.734;2022-08-19T01:34:53;97016.88;;;17.49;83.08
23616;BME280;11985;49.404;7.734;2022-08-19T01:36:54;96996.63;;;17.48;83.15
23616;BME280;11985;49.404;7.734;2022-08-19T01:38:58;96997.97;;;17.45;83.02
23616;BME280;11985;49.404;7.734;2022-08-19T01:41:00;96997.16;;;17.45;83.05
23616;BME280;11985;49.404;7.734;2022-08-19T01:43:03;96992.91;;;17.44;82.98
23616;BME280;11985;49.404;7.734;2022-08-19T01:45:06;96991.84;;;17.45;82.97
23616;BME280;11985;49.404;7.734;2022-08-19T01:47:08;96988.63;;;17.42;82.99
23616;BME280;11985;49.404;7.734;2022-08-19T01:49:10;96996.09;;;17.46;82.98
23616;BME280;11985;49.404;7.734;2022-08-19T01:51:12;96996.59;;;17.42;83.07
23616;BME280;11985;49.404;7.734;2022-08-19T01:53:14;96995.56;;;17.44;83.04
23616;BME280;11985;49.404;7.734;2022-08-19T01:55:27;97008.56;;;17.40;82.96
23616;BME280;11985;49.404;7.734;2022-08-19T01:57:29;97009.06;;;17.37;83.06
23616;BME280;11985;49.404;7.734;2022-08-19T01:59:31;96999.50;;;17.36;83.10
23616;BME280;11985;49.404;7.734;2022-08-19T02:01:33;97011.25;;;17.40;83.03
23616;BME280;11985;49.404;7.734;2022-08-19T02:03:35;97017.91;;;17.42;83.13
23616;BME280;11985;49.404;7.734;2022-08-19T02:05:37;97020.03;;;17.40;83.12
23616;BME280;11985;49.404;7.734;2022-08-19T02:07:41;97021.09;;;17.39;83.12
23616;BME280;11985;49.404;7.734;2022-08-19T02:09:45;97018.94;;;17.36;82.93
23616;BME280;11985;49.404;7.734;2022-08-19T02:11:48;97010.41;;;17.34;82.94
23616;BME280;11985;49.404;7.734;2022-08-19T02:13:50;97013.59;;;17.36;82.86
23616;BME280;11985;49.404;7.734;2022-08-19T02:15:52;97021.34;;;17.38;83.11
23616;BME280;11985;49.404;7.734;2022-08-19T02:17:54;97013.59;;;17.36;83.11
23616;BME280;11985;49.404;7.734;2022-08-19T02:19:56;97014.13;;;17.33;83.14
23616;BME280;11985;49.404;7.734;2022-08-19T02:21:58;97023.19;;;17.32;83.04
23616;BME280;11985;49.404;7.734;2022-08-19T02:24:00;97023.66;;;17.29;82.93
23616;BME280;11985;49.404;7.734;2022-08-19T02:26:02;97026.03;;;17.26;83.00
23616;BME280;11985;49.404;7.734;2022-08-19T02:28:06;97021.47;;;17.21;83.00
23616;BME280;11985;49.404;7.734;2022-08-19T02:30:11;97018.25;;;17.19;83.05
23616;BME280;11985;49.404;7.734;2022-08-19T02:32:13;97021.97;;;17.18;83.18
23616;BME280;11985;49.404;7.734;2022-08-19T02:34:14;97023.59;;;17.19;83.24
23616;BME280;11985;49.404;7.734;2022-08-19T02:36:16;97025.72;;;17.17;83.37
23616;BME280;11985;49.404;7.734;2022-08-19T02:38:18;97024.09;;;17.16;83.38
23616;BME280;11985;49.404;7.734;2022-08-19T02:40:28;97027.00;;;17.14;83.46
23616;BME280;11985;49.404;7.734;2022-08-19T02:42:29;97021.94;;;17.13;83.51
23616;BME280;11985;49.404;7.734;2022-08-19T02:44:32;97027.53;;;17.11;83.60
23616;BME280;11985;49.404;7.734;2022-08-19T02:46:34;97031.47;;;17.09;83.57
23616;BME280;11985;49.404;7.734;2022-08-19T02:48:36;97029.28;;;17.01;83.65
23616;BME280;11985;49.404;7.734;2022-08-19T02:50:39;97039.34;;;16.99;83.64
23616;BME280;11985;49.404;7.734;2022-08-19T02:52:40;97030.84;;;16.97;83.61
23616;BME280;11985;49.404;7.734;2022-08-19T02:54:42;97034.56;;;16.96;83.74
23616;BME280;11985;49.404;7.734;2022-08-19T02:56:44;97032.66;;;16.91;83.69
23616;BME280;11985;49.404;7.734;2022-08-19T02:58:47;97026.22;;;16.87;83.83
23616;BME280;11985;49.404;7.734;2022-08-19T03:00:53;97032.06;;;16.84;83.79
23616;BME280;11985;49.404;7.734;2022-08-19T03:02:55;97028.81;;;16.82;83.98
23616;BME280;11985;49.404;7.734;2022-08-19T03:04:57;97028.81;;;16.82;84.02
23616;BME280;11985;49.404;7.734;2022-08-19T03:06:58;97029.66;;;16.82;84.38
23616;BME280;11985;49.404;7.734;2022-08-19T03:09:00;97028.81;;;16.82;84.39
23616;BME280;11985;49.404;7.734;2022-08-19T03:11:02;97026.41;;;16.80;84.48
23616;BME280;11985;49.404;7.734;2022-08-19T03:13:04;97028.53;;;16.78;84.75
23616;BME280;11985;49.404;7.734;2022-08-19T03:15:07;97025.88;;;16.78;84.68
23616;BME280;11985;49.404;7.734;2022-08-19T03:17:10;97029.81;;;16.76;84.97
23616;BME280;11985;49.404;7.734;2022-08-19T03:19:13;97019.44;;;16.74;85.01
23616;BME280;11985;49.404;7.734;2022-08-19T03:21:17;97016.25;;;16.72;85.04
23616;BME280;11985;49.404;7.734;2022-08-19T03:23:19;97009.53;;;16.70;85.04
23616;BME280;11985;49.404;7.734;2022-08-19T03:25:21;97007.13;;;16.68;85.14
23616;BME280;11985;49.404;7.734;2022-08-19T03:27:23;97015.03;;;16.63;85.14
23616;BME280;11985;49.404;7.734;2022-08-19T03:29:26;97020.84;;;16.60;85.29
23616;BME280;11985;49.404;7.734;2022-08-19T03:31:28;97023.75;;;16.58;85.45
23616;BME280;11985;49.404;7.734;2022-08-19T03:33:33;97027.16;;;16.54;85.60
23616;BME280;11985;49.404;7.734;2022-08-19T03:35:35;97030.09;;;16.52;85.78
23616;BME280;11985;49.404;7.734;2022-08-19T03:37:37;97037.19;;;16.47;85.68
23616;BME280;11985;49.404;7.734;2022-08-19T03:39:40;97037.41;;;16.40;85.87
23616;BME280;11985;49.404;7.734;2022-08-19T03:41:44;97036.28;;;16.36;85.80
23616;BME280;11985;49.404;7.734;2022-08-19T03:43:46;97039.66;;;16.31;85.95
23616;BME280;11985;49.404;7.734;2022-08-19T03:45:48;97040.97;;;16.29;86.13
23616;BME280;11985;49.404;7.734;2022-08-19T03:47:51;97047.56;;;16.26;86.26
23616;BME280;11985;49.404;7.734;2022-08-19T03:49:54;97053.88;;;16.20;86.28
23616;BME280;11985;49.404;7.734;2022-08-19T03:51:57;97043.75;;;16.17;86.47
23616;BME280;11985;49.404;7.734;2022-08-19T03:54:03;97046.97;;;16.19;86.54
23616;BME280;11985;49.404;7.734;2022-08-19T03:56:08;97048.56;;;16.20;86.64
23616;BME280;11985;49.404;7.734;2022-08-19T03:58:10;97056.59;;;16.25;86.65
23616;BME280;11985;49.404;7.734;2022-08-19T04:00:13;97057.47;;;16.31;86.60
23616;BME280;11985;49.404;7.734;2022-08-19T04:02:14;97058.84;;;16.33;86.47
23616;BME280;11985;49.404;7.734;2022-08-19T04:04:16;97060.78;;;16.38;86.57
23616;BME280;11985;49.404;7.734;2022-08-19T04:06:21;97050.44;;;16.42;86.57
23616;BME280;11985;49.404;7.734;2022-08-19T04:08:23;97049.94;;;16.45;86.45
23616;BME280;11985;49.404;7.734;2022-08-19T04:10:25;97040.38;;;16.44;86.44
23616;BME280;11985;49.404;7.734;2022-08-19T04:12:26;97043.03;;;16.44;86.30
23616;BME280;11985;49.404;7.734;2022-08-19T04:14:29;97043.50;;;16.41;86.22
23616;BME280;11985;49.404;7.734;2022-08-19T04:16:31;97046.16;;;16.41;86.16
23616;BME280;11985;49.404;7.734;2022-08-19T04:18:33;97054.41;;;16.39;86.06
23616;BME280;11985;49.404;7.734;2022-08-19T04:20:38;97054.09;;;16.35;86.01
23616;BME280;11985;49.404;7.734;2022-08-19T04:22:41;97052.47;;;16.34;85.88
23616;BME280;11985;49.404;7.734;2022-08-19T04:24:43;97042.91;;;16.33;85.90
23616;BME280;11985;49.404;7.734;2022-08-19T04:26:44;97033.88;;;16.34;85.94
23616;BME280;11985;49.404;7.734;2022-08-19T04:28:46;97032.28;;;16.33;85.92
23616;BME280;11985;49.404;7.734;2022-08-19T04:30:50;97041.31;;;16.32;86.01
23616;BME280;11985;49.404;7.734;2022-08-19T04:32:52;97041.53;;;16.31;85.98
23616;BME280;11985;49.404;7.734;2022-08-19T04:34:53;97033.25;;;16.27;85.98
23616;BME280;11985;49.404;7.734;2022-08-19T04:36:58;97037.19;;;16.25;85.99
23616;BME280;11985;49.404;7.734;2022-08-19T04:39:05;97035.84;;;16.22;86.08
23616;BME280;11985;49.404;7.734;2022-08-19T04:41:06;97038.44;;;16.17;86.16
23616;BME280;11985;49.404;7.734;2022-08-19T04:43:26;97048.94;;;16.07;86.24
23616;BME280;11985;49.404;7.734;2022-08-19T04:45:27;97050.41;;;15.98;86.20
23616;BME280;11985;49.404;7.734;2022-08-19T04:47:29;97055.09;;;15.91;86.46
23616;BME280;11985;49.404;7.734;2022-08-19T04:49:33;97046.25;;;15.85;86.46
23616;BME280;11985;49.404;7.734;2022-08-19T04:51:35;97044.31;;;15.80;86.71
23616;BME280;11985;49.404;7.734;2022-08-19T04:53:38;97049.63;;;15.80;86.78
23616;BME280;11985;49.404;7.734;2022-08-19T04:55:42;97046.97;;;15.80;86.91
23616;BME280;11985;49.404;7.734;2022-08-19T04:57:44;97030.56;;;15.83;87.22
23616;BME280;11985;49.404;7.734;2022-08-19T04:59:45;97042.13;;;15.94;87.40
23616;BME280;11985;49.404;7.734;2022-08-19T05:01:47;97034.00;;;16.01;87.35
23616;BME280;11985;49.404;7.734;2022-08-19T05:03:50;97038.31;;;16.07;87.37
23616;BME280;11985;49.404;7.734;2022-08-19T05:05:52;97041.28;;;16.10;87.41
23616;BME280;11985;49.404;7.734;2022-08-19T05:07:54;97051.66;;;16.12;87.40
23616;BME280;11985;49.404;7.734;2022-08-19T05:09:56;97047.16;;;16.13;87.36
23616;BME280;11985;49.404;7.734;2022-08-19T05:11:59;97049.56;;;16.14;87.51
23616;BME280;11985;49.404;7.734;2022-08-19T05:14:01;97051.66;;;16.12;87.42
23616;BME280;11985;49.404;7.734;2022-08-19T05:16:03;97052.72;;;16.11;87.55
23616;BME280;11985;49.404;7.734;2022-08-19T05:18:05;97048.44;;;16.10;87.45
23616;BME280;11985;49.404;7.734;2022-08-19T05:20:24;97053.53;;;16.12;87.58
23616;BME280;11985;49.404;7.734;2022-08-19T05:22:44;97050.59;;;16.13;87.63
23616;BME280;11985;49.404;7.734;2022-08-19T05:24:46;97061.31;;;16.18;87.71
23616;BME280;11985;49.404;7.734;2022-08-19T05:26:49;97059.03;;;16.27;87.75
23616;BME280;11985;49.404;7.734;2022-08-19T05:28:52;97071.88;;;16.35;87.79
23616;BME280;11985;49.404;7.734;2022-08-19T05:30:54;97069.59;;;16.44;87.71
23616;BME280;11985;49.404;7.734;2022-08-19T05:32:56;97075.03;;;16.54;87.60
23616;BME280;11985;49.404;7.734;2022-08-19T05:34:57;97070.16;;;16.68;87.36
23616;BME280;11985;49.404;7.734;2022-08-19T05:37:01;97075.41;;;16.84;87.10
23616;BME280;11985;49.404;7.734;2022-08-19T05:39:05;97068.41;;;17.00;86.90
23616;BME280;11985;49.404;7.734;2022-08-19T05:41:08;97072.22;;;17.14;86.40
23616;BME280;11985;49.404;7.734;2022-08-19T05:43:10;97072.38;;;17.30;85.97
23616;BME280;11985;49.404;7.734;2022-08-19T05:45:13;97070.66;;;17.46;85.37
23616;BME280;11985;49.404;7.734;2022-08-19T05:47:15;97077.13;;;17.60;85.08
23616;BME280;11985;49.404;7.734;2022-08-19T05:49:20;97088.94;;;17.69;84.40
23616;BME280;11985;49.404;7.734;2022-08-19T05:51:22;97090.91;;;17.79;84.06
23616;BME280;11985;49.404;7.734;2022-08-19T05:53:25;97093.88;;;17.87;83.66
23616;BME280;11985;49.404;7.734;2022-08-19T05:55:26;97102.75;;;17.98;83.28
23616;BME280;11985;49.404;7.734;2022-08-19T05:57:28;97100.94;;;18.09;83.22
23616;BME280;11985;49.404;7.734;2022-08-19T05:59:30;97101.00;;;18.19;82.65
23616;BME280;11985;49.404;7.734;2022-08-19T06:01:32;97106.41;;;18.29;82.35
23616;BME280;11985;49.404;7.734;2022-08-19T06:03:35;97108.56;;;18.37;81.80
23616;BME280;11985;49.404;7.734;2022-08-19T06:05:37;97116.38;;;18.49;81.41
23616;BME280;11985;49.404;7.734;2022-08-19T06:07:39;97120.94;;;18.59;80.95
23616;BME280;11985;49.404;7.734;2022-08-19T06:09:41;97125.56;;;18.68;80.53
23616;BME280;11985;49.404;7.734;2022-08-19T06:11:45;97132.81;;;18.83;80.11
23616;BME280;11985;49.404;7.734;2022-08-19T06:13:50;97128.06;;;19.01;79.72
23616;BME280;11985;49.404;7.734;2022-08-19T06:15:52;97131.00;;;19.09;79.12
23616;BME280;11985;49.404;7.734;2022-08-19T06:17:55;97141.47;;;19.26;78.73
23616;BME280;11985;49.404;7.734;2022-08-19T06:19:57;97142.56;;;19.40;78.42
23616;BME280;11985;49.404;7.734;2022-08-19T06:21:59;97138.31;;;19.55;77.96
23616;BME280;11985;49.404;7.734;2022-08-19T06:24:01;97149.03;;;19.60;77.40
23616;BME280;11985;49.404;7.734;2022-08-19T06:26:03;97147.41;;;19.59;76.71
23616;BME280;11985;49.404;7.734;2022-08-19T06:28:05;97144.75;;;19.69;76.38
23616;BME280;11985;49.404;7.734;2022-08-19T06:30:07;97144.50;;;19.75;76.06
23616;BME280;11985;49.404;7.734;2022-08-19T06:32:10;97138.88;;;19.92;75.60
23616;BME280;11985;49.404;7.734;2022-08-19T06:34:13;97143.13;;;20.09;75.11
23616;BME280;11985;49.404;7.734;2022-08-19T06:36:20;97152.22;;;20.18;74.46
23616;BME280;11985;49.404;7.734;2022-08-19T06:38:21;97145.25;;;20.27;74.45
23616;BME280;11985;49.404;7.734;2022-08-19T06:40:23;97157.00;;;20.41;73.88
23616;BME280;11985;49.404;7.734;2022-08-19T06:42:27;97154.84;;;20.53;73.68
23616;BME280;11985;49.404;7.734;2022-08-19T06:44:30;97158.56;;;20.63;73.33
23616;BME280;11985;49.404;7.734;2022-08-19T06:46:37;97147.28;;;20.76;72.83
23616;BME280;11985;49.404;7.734;2022-08-19T06:48:39;97148.81;;;20.87;72.28
23616;BME280;11985;49.404;7.734;2022-08-19T06:50:42;97152.56;;;20.96;72.03
23616;BME280;11985;49.404;7.734;2022-08-19T06:52:43;97150.94;;;21.00;71.41
23616;BME280;11985;49.404;7.734;2022-08-19T06:54:45;97152.50;;;21.06;71.33
23616;BME280;11985;49.404;7.734;2022-08-19T06:56:47;97136.69;;;21.10;70.62
23616;BME280;11985;49.404;7.734;2022-08-19T06:58:48;97148.13;;;21.21;70.50
23616;BME280;11985;49.404;7.734;2022-08-19T07:00:54;97143.28;;;21.28;70.25
23616;BME280;11985;49.404;7.734;2022-08-19T07:03:09;97147.31;;;21.30;69.95
23616;BME280;11985;49.404;7.734;2022-08-19T07:05:17;97151.84;;;21.35;69.56
23616;BME280;11985;49.404;7.734;2022-08-19T07:07:21;97153.44;;;21.36;69.25
23616;BME280;11985;49.404;7.734;2022-08-19T07:09:23;97148.06;;;21.36;69.04
23616;BME280;11985;49.404;7.734;2022-08-19T07:11:25;97149.19;;;21.25;68.65
23616;BME280;11985;49.404;7.734;2022-08-19T07:13:27;97146.78;;;21.23;68.58
23616;BME280;11985;49.404;7.734;2022-08-19T07:15:28;97141.16;;;21.20;68.27
23616;BME280;11985;49.404;7.734;2022-08-19T07:17:32;97138.28;;;21.16;68.49
23616;BME280;11985;49.404;7.734;2022-08-19T07:19:35;97151.94;;;21.09;68.60
23616;BME280;11985;49.404;7.734;2022-08-19T07:21:40;97149.84;;;21.01;68.48
23616;BME280;11985;49.404;7.734;2022-08-19T07:23:44;97146.94;;;20.93;68.26
23616;BME280;11985;49.404;7.734;2022-08-19T07:25:46;97145.63;;;20.85;68.77
23616;BME280;11985;49.404;7.734;2022-08-19T07:27:49;97154.75;;;20.84;68.71
23616;BME280;11985;49.404;7.734;2022-08-19T07:29:51;97155.28;;;20.81;68.92
23616;BME280;11985;49.404;7.734;2022-08-19T07:31:56;97150.75;;;20.76;68.67
23616;BME280;11985;49.404;7.734;2022-08-19T07:33:59;97148.31;;;20.85;68.85
23616;BME280;11985;49.404;7.734;2022-08-19T07:36:01;97149.34;;;20.99;68.84
23616;BME280;11985;49.404;7.734;2022-08-19T07:38:02;97155.38;;;21.15;68.69
23616;BME280;11985;49.404;7.734;2022-08-19T07:40:07;97150.78;;;21.26;68.75
23616;BME280;11985;49.404;7.734;2022-08-19T07:42:10;97156.81;;;21.52;68.44
23616;BME280;11985;49.404;7.734;2022-08-19T07:44:12;97153.16;;;21.77;68.13
23616;BME280;11985;49.404;7.734;2022-08-19T07:46:15;97153.72;;;22.03;67.93
23616;BME280;11985;49.404;7.734;2022-08-19T07:48:17;97150.94;;;22.18;67.39
23616;BME280;11985;49.404;7.734;2022-08-19T07:50:20;97161.81;;;22.32;66.96
23616;BME280;11985;49.404;7.734;2022-08-19T07:52:22;97156.91;;;22.39;66.54
23616;BME280;11985;49.404;7.734;2022-08-19T07:54:25;97159.06;;;22.37;66.30
23616;BME280;11985;49.404;7.734;2022-08-19T07:56:30;97153.16;;;22.40;65.85
23616;BME280;11985;49.404;7.734;2022-08-19T07:58:33;97152.00;;;22.46;65.78
23616;BME280;11985;49.404;7.734;2022-08-19T08:00:35;97152.69;;;22.57;65.68
23616;BME280;11985;49.404;7.734;2022-08-19T08:02:37;97159.59;;;22.63;65.28
23616;BME280;11985;49.404;7.734;2022-08-19T08:04:39;97168.34;;;22.74;64.92
23616;BME280;11985;49.404;7.734;2022-08-19T08:06:58;97167.13;;;22.90;64.85
23616;BME280;11985;49.404;7.734;2022-08-19T08:09:20;97165.03;;;23.06;64.27
23616;BME280;11985;49.404;7.734;2022-08-19T08:11:22;97163.09;;;23.11;63.75
23616;BME280;11985;49.404;7.734;2022-08-19T08:13:25;97155.09;;;23.06;63.62
23616;BME280;11985;49.404;7.734;2022-08-19T08:15:27;97159.59;;;22.87;63.67
23616;BME280;11985;49.404;7.734;2022-08-19T08:17:29;97158.56;;;22.88;63.30
23616;BME280;11985;49.404;7.734;2022-08-19T08:19:31;97152.84;;;22.95;63.19
23616;BME280;11985;49.404;7.734;2022-08-19T08:21:33;97156.41;;;22.85;63.20
23616;BME280;11985;49.404;7.734;2022-08-19T08:23:35;97167.84;;;22.72;63.15
23616;BME280;11985;49.404;7.734;2022-08-19T08:25:36;97160.94;;;22.65;62.83
23616;BME280;11985;49.404;7.734;2022-08-19T08:27:38;97168.34;;;22.74;63.02
23616;BME280;11985;49.404;7.734;2022-08-19T08:29:42;97166.38;;;22.60;63.00
23616;BME280;11985;49.404;7.734;2022-08-19T08:31:45;97168.25;;;22.60;63.12
23616;BME280;11985;49.404;7.734;2022-08-19T08:33:47;97172.75;;;22.64;62.68
23616;BME280;11985;49.404;7.734;2022-08-19T08:35:49;97175.41;;;22.64;62.58
23616;BME280;11985;49.404;7.734;2022-08-19T08:37:53;97169.00;;;22.65;62.78
23616;BME280;11985;49.404;7.734;2022-08-19T08:39:55;97171.69;;;22.65;62.37
23616;BME280;11985;49.404;7.734;2022-08-19T08:41:58;97169.03;;;22.60;62.38
23616;BME280;11985;49.404;7.734;2022-08-19T08:44:03;97165.28;;;22.61;62.47
23616;BME280;11985;49.404;7.734;2022-08-19T08:46:12;97157.97;;;22.67;62.42
23616;BME280;11985;49.404;7.734;2022-08-19T08:48:20;97162.91;;;22.79;62.87
23616;BME280;11985;49.404;7.734;2022-08-19T08:50:27;97169.81;;;22.90;62.57
23616;BME280;11985;49.404;7.734;2022-08-19T08:52:33;97189.13;;;22.87;62.66
23616;BME280;11985;49.404;7.734;2022-08-19T08:54:39;97186.44;;;22.87;62.40
23616;BME280;11985;49.404;7.734;2022-08-19T08:56:42;97176.91;;;22.76;62.13
23616;BME280;11985;49.404;7.734;2022-08-19T08:58:51;97181.13;;;22.82;62.20
23616;BME280;11985;49.404;7.734;2022-08-19T09:00:55;97177.16;;;22.79;61.87
23616;BME280;11985;49.404;7.734;2022-08-19T09:02:59;97177.59;;;22.86;61.66
23616;BME280;11985;49.404;7.734;2022-08-19T09:05:02;97187.69;;;22.71;61.37
23616;BME280;11985;49.404;7.734;2022-08-19T09:07:21;97187.25;;;22.63;61.53
23616;BME280;11985;49.404;7.734;2022-08-19T09:09:30;97188.22;;;22.73;61.83
23616;BME280;11985;49.404;7.734;2022-08-19T09:11:46;97181.72;;;22.79;61.60
23616;BME280;11985;49.404;7.734;2022-08-19T09:13:57;97185.75;;;22.76;61.42
23616;BME280;11985;49.404;7.734;2022-08-19T09:16:06;97186.09;;;22.70;61.00
23616;BME280;11985;49.404;7.734;2022-08-19T09:18:10;97189.63;;;22.65;61.21
23616;BME280;11985;49.404;7.734;2022-08-19T09:20:15;97185.16;;;22.60;60.90
23616;BME280;11985;49.404;7.734;2022-08-19T09:22:19;97185.16;;;22.60;60.94
23616;BME280;11985;49.404;7.734;2022-08-19T09:24:22;97181.38;;;22.61;61.03
23616;BME280;11985;49.404;7.734;2022-08-19T09:26:24;97182.31;;;22.47;60.68
23616;BME280;11985;49.404;7.734;2022-08-19T09:28:25;97192.72;;;22.53;60.03
23616;BME280;11985;49.404;7.734;2022-08-19T09:30:29;97183.22;;;22.66;59.13
23616;BME280;11985;49.404;7.734;2022-08-19T09:32:32;97176.09;;;22.75;58.57
23616;BME280;11985;49.404;7.734;2022-08-19T09:34:34;97186.06;;;22.75;57.96
23616;BME280;11985;49.404;7.734;2022-08-19T09:36:36;97176.91;;;22.76;57.55
23616;BME280;11985;49.404;7.734;2022-08-19T09:38:39;97174.75;;;22.78;56.77
23616;BME280;11985;49.404;7.734;2022-08-19T09:40:41;97178.19;;;22.83;56.47
23616;BME280;11985;49.404;7.734;2022-08-19T09:42:43;97167.91;;;22.90;56.13
23616;BME280;11985;49.404;7.734;2022-08-19T09:44:46;97176.00;;;23.09;56.08
23616;BME280;11985;49.404;7.734;2022-08-19T09:46:48;97173.84;;;23.11;55.78
23616;BME280;11985;49.404;7.734;2022-08-19T09:48:51;97166.06;;;23.10;55.26
23616;BME280;11985;49.404;7.734;2022-08-19T09:50:55;97170.44;;;23.25;55.34
23616;BME280;11985;49.404;7.734;2022-08-19T09:52:56;97170.66;;;23.47;55.27
23616;BME280;11985;49.404;7.734;2022-08-19T09:54:58;97171.50;;;23.66;55.18
23616;BME280;11985;49.404;7.734;2022-08-19T09:57:00;97167.38;;;23.88;55.10
23616;BME280;11985;49.404;7.734;2022-08-19T09:59:02;97167.28;;;23.93;54.60
23616;BME280;11985;49.404;7.734;2022-08-19T10:01:06;97156.66;;;24.02;54.34
23616;BME280;11985;49.404;7.734;2022-08-19T10:03:08;97161.06;;;24.11;54.49
23616;BME280;11985;49.404;7.734;2022-08-19T10:05:11;97152.84;;;24.21;54.22
23616;BME280;11985;49.404;7.734;2022-08-19T10:07:32;97149.44;;;24.30;53.54
23616;BME280;11985;49.404;7.734;2022-08-19T10:09:33;97162.81;;;24.21;53.25
23616;BME280;11985;49.404;7.734;2022-08-19T10:11:35;97151.66;;;24.28;53.47
23616;BME280;11985;49.404;7.734;2022-08-19T10:13:37;97152.88;;;24.35;53.29
23616;BME280;11985;49.404;7.734;2022-08-19T10:15:39;97161.25;;;24.47;53.20
23616;BME280;11985;49.404;7.734;2022-08-19T10:17:41;97170.38;;;24.65;52.70
23616;BME280;11985;49.404;7.734;2022-08-19T10:19:46;97168.56;;;24.74;52.32
23616;BME280;11985;49.404;7.734;2022-08-19T10:21:49;97163.06;;;24.80;51.70
23616;BME280;11985;49.404;7.734;2022-08-19T10:23:55;97158.88;;;24.87;51.17
23616;BME280;11985;49.404;7.734;2022-08-19T10:25:59;97155.06;;;25.02;51.11
23616;BME280;11985;49.404;7.734;2022-08-19T10:28:03;97150.97;;;25.18;50.54
23616;BME280;11985;49.404;7.734;2022-08-19T10:30:07;97148.91;;;25.15;50.13
23616;BME280;11985;49.404;7.734;2022-08-19T10:32:09;97136.81;;;25.26;49.77
23616;BME280;11985;49.404;7.734;2022-08-19T10:34:13;97143.06;;;25.36;49.41
23616;BME280;11985;49.404;7.734;2022-08-19T10:36:17;97144.03;;;25.40;49.48
23616;BME280;11985;49.404;7.734;2022-08-19T10:38:19;97135.22;;;25.48;49.27
23616;BME280;11985;49.404;7.734;2022-08-19T10:40:23;97139.13;;;25.42;48.85
23616;BME280;11985;49.404;7.734;2022-08-19T10:42:25;97141.25;;;25.45;48.79
23616;BME280;11985;49.404;7.734;2022-08-19T10:44:26;97136.09;;;25.57;48.52
23616;BME280;11985;49.404;7.734;2022-08-19T10:46:28;97131.38;;;25.63;48.13
23616;BME280;11985;49.404;7.734;2022-08-19T10:48:32;97133.75;;;25.64;48.00
23616;BME280;11985;49.404;7.734;2022-08-19T10:50:34;97128.22;;;25.47;47.55
23616;BME280;11985;49.404;7.734;2022-08-19T10:52:54;97139.66;;;25.44;47.58